Time;durP1;ratioP1;P1;durP2;ratioP2;P2;SDS_P1;SDS_P2;PMS_P1;PMS_P2;Temp;Humidity;BMP_temperature;BMP_pressure;BME280_temperature;BME280_humidity;BME280_pressure;Samples;Min_cycle;Max_cycle;Signal;HPM_P1;HPM_P2
2022/08/20 00:02:11;;;;;;;0.70;0.10;;;24.40;99.90;;;;;;5034959;28;20978;-74
2022/08/20 00:04:40;;;;;;;0.70;0.20;;;24.20;99.90;;;;;;5034703;28;20554;-73
2022/08/20 00:07:09;;;;;;;0.70;0.10;;;24.30;99.90;;;;;;5034946;28;20478;-74
2022/08/20 00:09:37;;;;;;;0.70;0.13;;;24.30;99.90;;;;;;5035146;28;20454;-75
2022/08/20 00:12:05;;;;;;;0.70;0.10;;;24.20;99.90;;;;;;5035135;28;20808;-74
2022/08/20 00:14:34;;;;;;;0.70;0.10;;;24.20;99.90;;;;;;5034616;28;20463;-74
2022/08/20 00:17:02;;;;;;;0.70;0.10;;;24.30;99.90;;;;;;5034282;28;20475;-74
2022/08/20 00:19:31;;;;;;;0.70;0.10;;;;;;;;;;5034797;28;21118;-74
2022/08/20 00:21:59;;;;;;;0.70;0.20;;;;;;;;;;5033422;28;20534;-73
2022/08/20 00:24:28;;;;;;;0.70;0.10;;;24.30;99.90;;;;;;5032598;28;20478;-75
2022/08/20 00:26:56;;;;;;;0.70;0.20;;;24.30;99.90;;;;;;5030810;28;20970;-75
2022/08/20 00:29:27;;;;;;;0.70;0.20;;;24.20;99.90;;;;;;5034748;28;20450;-76
2022/08/20 00:31:55;;;;;;;0.70;0.10;;;24.20;99.90;;;;;;5035026;28;20451;-75
2022/08/20 00:34:23;;;;;;;0.70;0.17;;;24.20;99.90;;;;;;5034818;28;20464;-75
2022/08/20 00:36:51;;;;;;;0.70;0.20;;;24.10;99.90;;;;;;5034791;28;20530;-74
2022/08/20 00:39:19;;;;;;;0.70;0.20;;;;;;;;;;5034206;28;20458;-74
2022/08/20 00:41:50;;;;;;;0.70;0.10;;;24.10;99.90;;;;;;5033721;28;20439;-73
2022/08/20 00:44:21;;;;;;;0.90;0.30;;;24.10;99.90;;;;;;5034592;28;20478;-74
2022/08/20 00:46:50;;;;;;;0.70;0.20;;;24.00;99.90;;;;;;5034443;28;21037;-74
2022/08/20 00:49:23;;;;;;;0.70;0.10;;;24.00;99.90;;;;;;5034444;28;20455;-74
2022/08/20 00:51:57;;;;;;;0.70;0.20;;;24.00;99.90;;;;;;5036120;28;21195;-74
2022/08/20 00:54:30;;;;;;;0.70;0.10;;;23.90;99.90;;;;;;5036527;28;20865;-75
2022/08/20 00:57:03;;;;;;;0.70;0.10;;;23.90;99.90;;;;;;5034201;28;20510;-75
2022/08/20 00:59:36;;;;;;;0.70;0.10;;;23.90;99.90;;;;;;5033208;28;20449;-74
2022/08/20 01:02:06;;;;;;;0.70;0.20;;;23.90;99.90;;;;;;5028880;28;20486;-74
2022/08/20 01:04:35;;;;;;;0.70;0.10;;;23.90;99.90;;;;;;5029882;28;20479;-74
2022/08/20 01:07:05;;;;;;;0.70;0.20;;;23.90;99.90;;;;;;5031107;28;20808;-75
2022/08/20 01:09:34;;;;;;;0.70;0.10;;;23.90;99.90;;;;;;5031972;28;20455;-75
2022/08/20 01:12:24;;;;;;;0.70;0.20;;;23.80;99.90;;;;;;5032648;28;20440;-76
2022/08/20 01:14:52;;;;;;;0.70;0.10;;;23.80;99.90;;;;;;5034922;28;20470;-75
2022/08/20 01:17:24;;;;;;;0.70;0.20;;;23.80;99.90;;;;;;5034639;28;20483;-75
2022/08/20 01:19:57;;;;;;;0.70;0.20;;;23.80;99.90;;;;;;5034141;28;20447;-75
2022/08/20 01:25:22;;;;;;;0.70;0.10;;;23.80;99.90;;;;;;5032857;28;20479;-74
2022/08/20 01:27:53;;;;;;;0.70;0.20;;;23.80;99.90;;;;;;5033309;28;20879;-74
2022/08/20 01:30:24;;;;;;;0.70;0.20;;;23.80;99.90;;;;;;5033220;28;20459;-74
2022/08/20 01:32:52;;;;;;;0.70;0.10;;;;;;;;;;5033357;28;20456;-74
2022/08/20 01:35:21;;;;;;;0.70;0.10;;;23.80;99.90;;;;;;5033291;28;20464;-74
2022/08/20 01:37:49;;;;;;;0.70;0.10;;;23.80;99.90;;;;;;5033227;28;20479;-73
2022/08/20 01:40:35;;;;;;;0.70;0.13;;;23.80;99.90;;;;;;5031487;28;20451;-74
2022/08/20 01:43:05;;;;;;;0.70;0.20;;;23.80;99.90;;;;;;5013387;28;20841;-74
2022/08/20 01:45:35;;;;;;;0.70;0.10;;;;;;;;;;5013057;28;20527;-74
2022/08/20 01:48:04;;;;;;;0.70;0.10;;;23.90;99.90;;;;;;5012715;28;20436;-74
2022/08/20 01:50:35;;;;;;;0.70;0.10;;;23.90;99.90;;;;;;5012958;28;20448;-74
2022/08/20 01:53:12;;;;;;;0.70;0.10;;;23.90;99.90;;;;;;5017264;28;20821;-75
2022/08/20 01:55:40;;;;;;;0.70;0.20;;;23.90;99.90;;;;;;5032903;28;20463;-74
2022/08/20 01:58:10;;;;;;;0.70;0.10;;;23.90;99.90;;;;;;5032904;28;20529;-74
2022/08/20 02:00:38;;;;;;;0.70;0.10;;;23.90;99.90;;;;;;5033163;28;20443;-74
2022/08/20 02:03:06;;;;;;;0.70;0.20;;;23.90;99.90;;;;;;5033117;28;20451;-75
2022/08/20 02:05:35;;;;;;;0.70;0.10;;;23.90;99.90;;;;;;5032543;28;20471;-75
2022/08/20 02:08:04;;;;;;;0.70;0.20;;;24.00;99.90;;;;;;5032048;28;20458;-75
2022/08/20 02:10:33;;;;;;;0.70;0.10;;;24.00;99.90;;;;;;5032490;28;20443;-75
2022/08/20 02:13:04;;;;;;;0.80;0.53;;;23.90;99.90;;;;;;5032328;28;20466;-75
2022/08/20 02:15:33;;;;;;;0.70;0.13;;;23.90;99.90;;;;;;5032706;28;20562;-75
2022/08/20 02:18:07;;;;;;;0.70;0.10;;;23.90;99.90;;;;;;5032492;28;20485;-75
2022/08/20 02:20:36;;;;;;;0.70;0.10;;;24.00;99.90;;;;;;5032397;28;20443;-74
2022/08/20 02:23:06;;;;;;;0.70;0.10;;;23.90;99.90;;;;;;5032159;28;20450;-75
2022/08/20 02:25:37;;;;;;;0.70;0.10;;;24.00;99.90;;;;;;5031956;28;20477;-74
2022/08/20 02:28:09;;;;;;;0.70;0.10;;;24.00;99.90;;;;;;5032318;28;20435;-75
2022/08/20 02:30:40;;;;;;;0.70;0.10;;;23.90;99.90;;;;;;5012824;28;20451;-74
2022/08/20 02:33:12;;;;;;;0.70;0.20;;;23.90;99.90;;;;;;5012791;28;20994;-76
2022/08/20 02:35:41;;;;;;;0.70;0.17;;;23.90;99.90;;;;;;5016722;28;20467;-74
2022/08/20 02:38:10;;;;;;;0.70;0.20;;;24.00;99.90;;;;;;5032066;28;20475;-75
2022/08/20 02:40:39;;;;;;;0.70;0.20;;;24.00;99.90;;;;;;5032634;28;20439;-74
2022/08/20 02:43:07;;;;;;;0.70;0.10;;;24.00;99.90;;;;;;5032208;28;20550;-75
2022/08/20 02:45:36;;;;;;;0.70;0.20;;;23.90;99.90;;;;;;5033509;28;20472;-73
2022/08/20 02:48:05;;;;;;;0.70;0.10;;;23.90;99.90;;;;;;5035286;28;20448;-75
2022/08/20 02:50:33;;;;;;;0.70;0.20;;;23.90;99.90;;;;;;5032947;28;20459;-74
2022/08/20 02:53:01;;;;;;;0.70;0.20;;;24.00;99.90;;;;;;5033301;28;20488;-74
2022/08/20 02:55:29;;;;;;;0.70;0.10;;;23.90;99.90;;;;;;5034244;28;20475;-75
2022/08/20 02:57:58;;;;;;;0.70;0.20;;;23.90;99.90;;;;;;5035288;28;20451;-74
2022/08/20 03:00:27;;;;;;;0.70;0.10;;;23.90;99.90;;;;;;5036727;28;20541;-75
2022/08/20 03:02:59;;;;;;;0.70;0.13;;;23.90;99.90;;;;;;5033968;28;20444;-75
2022/08/20 03:05:28;;;;;;;0.70;0.10;;;23.90;99.90;;;;;;5031361;28;20471;-75
2022/08/20 03:07:57;;;;;;;0.70;0.10;;;;;;;;;;5032671;28;20446;-74
2022/08/20 03:10:27;;;;;;;0.70;0.10;;;23.90;99.90;;;;;;5035039;28;20482;-74
2022/08/20 03:12:55;;;;;;;0.70;0.20;;;23.90;99.90;;;;;;5040710;28;20443;-75
2022/08/20 03:15:23;;;;;;;0.70;0.40;;;23.80;99.90;;;;;;5040190;28;20464;-74
2022/08/20 03:17:51;;;;;;;0.70;0.20;;;23.80;99.90;;;;;;5044706;28;20503;-74
2022/08/20 03:20:19;;;;;;;0.70;0.20;;;23.80;99.90;;;;;;5048592;28;20490;-74
2022/08/20 03:22:52;;;;;;;0.70;0.20;;;23.70;99.90;;;;;;5050994;28;20479;-74
2022/08/20 03:25:20;;;;;;;0.70;0.10;;;23.70;99.90;;;;;;5061952;28;20462;-74
2022/08/20 03:27:48;;;;;;;1.03;0.20;;;23.70;99.90;;;;;;5066023;28;20445;-74
2022/08/20 03:30:22;;;;;;;0.70;0.20;;;23.60;99.90;;;;;;5067081;28;20429;-74
2022/08/20 03:32:50;;;;;;;0.70;0.17;;;23.60;99.90;;;;;;5059028;28;20451;-74
2022/08/20 03:35:21;;;;;;;0.70;0.20;;;23.60;99.90;;;;;;5054357;28;20454;-73
2022/08/20 03:37:49;;;;;;;0.70;0.20;;;23.60;99.90;;;;;;5045327;28;20817;-74
2022/08/20 03:40:22;;;;;;;0.70;0.10;;;23.70;99.90;;;;;;5050775;28;20477;-75
2022/08/20 03:42:51;;;;;;;0.70;0.20;;;23.60;99.90;;;;;;5043591;28;20450;-75
2022/08/20 03:45:20;;;;;;;0.70;0.10;;;23.70;99.90;;;;;;5051176;28;20466;-76
2022/08/20 03:47:50;;;;;;;0.70;0.10;;;23.60;99.90;;;;;;5050394;28;20438;-73
2022/08/20 03:50:19;;;;;;;0.70;0.10;;;23.60;99.90;;;;;;5050814;28;21158;-74
2022/08/20 03:52:50;;;;;;;0.70;0.20;;;23.60;99.90;;;;;;5045330;28;20434;-75
2022/08/20 03:55:22;;;;;;;0.70;0.20;;;23.60;99.90;;;;;;5050388;28;20466;-75
2022/08/20 03:57:52;;;;;;;0.70;0.20;;;23.50;99.90;;;;;;5042803;28;20446;-75
2022/08/20 04:00:23;;;;;;;0.70;0.10;;;23.50;99.90;;;;;;5050141;28;20478;-74
2022/08/20 04:02:51;;;;;;;0.70;0.10;;;23.50;99.90;;;;;;5045559;28;20446;-74
2022/08/20 04:05:19;;;;;;;0.70;0.10;;;23.50;99.90;;;;;;5047350;28;20984;-75
2022/08/20 04:07:48;;;;;;;0.70;0.20;;;23.50;99.90;;;;;;5030085;28;20443;-73
2022/08/20 04:10:15;;;;;;;0.70;0.10;;;23.50;99.90;;;;;;5030380;28;20938;-75
2022/08/20 04:12:45;;;;;;;0.70;0.10;;;23.50;99.90;;;;;;5042975;28;20443;-75
2022/08/20 04:15:23;;;;;;;0.70;0.20;;;23.40;99.90;;;;;;5051984;28;20492;-75
2022/08/20 04:17:51;;;;;;;0.70;0.20;;;23.40;99.90;;;;;;5054267;28;20454;-74
2022/08/20 04:20:24;;;;;;;0.70;0.10;;;23.40;99.90;;;;;;5054848;28;20524;-75
2022/08/20 04:22:54;;;;;;;0.70;0.10;;;23.40;99.90;;;;;;5054927;28;20522;-74
2022/08/20 04:28:24;;;;;;;0.70;0.20;;;23.40;99.90;;;;;;5032179;28;20447;-72
2022/08/20 04:30:52;;;;;;;0.70;0.20;;;23.40;99.90;;;;;;5034696;28;20459;-71
2022/08/20 04:33:20;;;;;;;0.70;0.10;;;23.40;99.90;;;;;;5035140;28;20445;-73
2022/08/20 04:36:01;;;;;;;0.70;0.10;;;23.50;99.90;;;;;;5034500;28;20467;-74
2022/08/20 04:38:30;;;;;;;0.70;0.10;;;23.50;99.90;;;;;;5034061;28;20897;-73
2022/08/20 04:41:18;;;;;;;0.70;0.10;;;;;;;;;;5034132;28;20438;-72
2022/08/20 04:43:53;;;;;;;0.70;0.20;;;23.40;99.90;;;;;;5014341;28;20479;-73
2022/08/20 04:46:24;;;;;;;0.70;0.20;;;23.40;99.90;;;;;;5027695;28;20461;-73
2022/08/20 04:48:52;;;;;;;0.70;0.27;;;23.40;99.90;;;;;;5033831;28;20447;-73
2022/08/20 04:51:21;;;;;;;0.70;0.10;;;23.40;99.90;;;;;;5034039;28;20455;-72
2022/08/20 04:53:52;;;;;;;0.70;0.27;;;23.40;99.90;;;;;;5035165;28;20522;-73
2022/08/20 04:56:22;;;;;;;0.70;0.20;;;23.40;99.90;;;;;;5034370;28;20475;-74
2022/08/20 04:58:53;;;;;;;0.70;0.20;;;23.40;99.90;;;;;;5034308;28;20451;-74
2022/08/20 05:01:22;;;;;;;0.70;0.20;;;23.50;99.90;;;;;;5034602;28;20456;-73
2022/08/20 05:03:53;;;;;;;0.70;0.10;;;23.50;99.90;;;;;;5034136;28;20612;-73
2022/08/20 05:06:23;;;;;;;0.70;0.10;;;23.40;99.90;;;;;;5034563;28;20459;-74
2022/08/20 05:08:52;;;;;;;0.70;0.20;;;23.40;99.90;;;;;;5034592;28;20527;-74
2022/08/20 05:11:20;;;;;;;0.70;0.20;;;23.40;99.90;;;;;;5032437;28;20444;-72
2022/08/20 05:14:07;;;;;;;0.70;0.10;;;23.40;99.90;;;;;;5034730;28;20894;-72
2022/08/20 05:16:37;;;;;;;0.70;0.10;;;23.40;99.90;;;;;;5034856;28;20513;-73
2022/08/20 05:19:07;;;;;;;0.70;0.10;;;23.40;99.90;;;;;;5034828;28;20451;-72
2022/08/20 05:21:35;;;;;;;0.70;0.10;;;23.40;99.90;;;;;;5034374;28;20455;-73
2022/08/20 05:24:04;;;;;;;0.70;0.10;;;23.40;99.90;;;;;;5035773;28;20482;-74
2022/08/20 05:26:33;;;;;;;0.70;0.10;;;23.40;99.90;;;;;;5037201;28;20483;-73
2022/08/20 05:29:03;;;;;;;0.70;0.20;;;23.40;99.90;;;;;;5038431;28;20440;-74
2022/08/20 05:31:33;;;;;;;0.70;0.20;;;23.50;99.90;;;;;;5035518;28;20470;-74
2022/08/20 05:34:02;;;;;;;0.70;0.20;;;23.50;99.90;;;;;;5034127;28;20424;-74
2022/08/20 05:36:29;;;;;;;0.70;0.20;;;23.50;99.90;;;;;;5033607;28;20467;-73
2022/08/20 05:38:58;;;;;;;0.70;0.10;;;23.50;99.90;;;;;;5033158;28;20827;-74
2022/08/20 05:41:27;;;;;;;0.70;0.20;;;23.50;99.90;;;;;;5032795;28;20582;-74
2022/08/20 05:43:59;;;;;;;0.70;0.10;;;23.50;99.90;;;;;;5032899;28;20758;-72
2022/08/20 05:46:29;;;;;;;0.80;0.63;;;23.40;99.90;;;;;;5033109;28;20474;-74
2022/08/20 05:49:00;;;;;;;0.70;0.10;;;23.40;99.90;;;;;;5033198;28;20450;-74
2022/08/20 05:51:28;;;;;;;0.70;0.10;;;23.40;99.90;;;;;;5013414;28;20440;-73
2022/08/20 05:53:56;;;;;;;0.70;0.17;;;23.50;99.90;;;;;;5013020;28;20452;-72
2022/08/20 05:56:29;;;;;;;0.70;0.17;;;23.60;99.90;;;;;;5013059;28;20534;-73
2022/08/20 05:58:59;;;;;;;0.70;0.30;;;23.60;99.90;;;;;;5013476;28;20452;-73
2022/08/20 06:01:27;;;;;;;0.70;0.10;;;23.60;99.90;;;;;;5013358;28;20476;-73
2022/08/20 06:06:41;;;;;;;0.70;0.10;;;23.40;99.90;;;;;;5012567;28;20460;-73
2022/08/20 06:09:14;;;;;;;0.70;0.10;;;23.40;99.90;;;;;;5013058;28;20966;-74
2022/08/20 06:11:42;;;;;;;0.70;0.10;;;23.30;99.90;;;;;;5012706;28;20440;-74
2022/08/20 06:14:09;;;;;;;0.70;0.10;;;23.30;99.90;;;;;;5012550;28;20448;-74
2022/08/20 06:16:37;;;;;;;0.70;0.20;;;23.30;99.90;;;;;;5012545;28;20468;-74
2022/08/20 06:19:07;;;;;;;0.70;0.10;;;23.20;99.90;;;;;;5014928;28;20510;-74
2022/08/20 06:21:38;;;;;;;0.70;0.20;;;23.20;99.90;;;;;;5015220;28;20591;-74
2022/08/20 06:24:08;;;;;;;0.70;0.20;;;23.10;99.90;;;;;;5024683;28;20809;-75
2022/08/20 06:26:37;;;;;;;0.70;0.20;;;23.10;99.90;;;;;;5042431;28;20549;-73
2022/08/20 06:29:06;;;;;;;0.70;0.10;;;23.10;99.90;;;;;;5042364;28;20456;-73
2022/08/20 06:31:38;;;;;;;0.70;0.10;;;23.10;99.90;;;;;;5032917;28;20786;-73
2022/08/20 06:34:07;;;;;;;0.70;0.20;;;23.10;99.90;;;;;;5043196;28;20446;-74
2022/08/20 06:36:34;;;;;;;0.70;0.10;;;23.10;99.90;;;;;;5040111;28;20466;-73
2022/08/20 06:39:02;;;;;;;0.70;0.20;;;23.10;99.90;;;;;;5040506;28;20940;-74
2022/08/20 06:41:32;;;;;;;0.70;0.10;;;23.20;99.90;;;;;;5041247;28;20481;-74
2022/08/20 06:44:03;;;;;;;0.70;0.20;;;23.20;99.90;;;;;;5046353;28;20443;-74
2022/08/20 06:46:31;;;;;;;0.70;0.10;;;23.20;99.90;;;;;;5035920;28;20476;-73
2022/08/20 06:48:59;;;;;;;0.70;0.10;;;23.20;99.90;;;;;;5042500;28;20782;-73
2022/08/20 06:51:28;;;;;;;0.70;0.10;;;23.30;99.90;;;;;;5042542;28;20444;-73
2022/08/20 06:53:56;;;;;;;0.70;0.10;;;23.30;99.90;;;;;;5036482;28;20498;-73
2022/08/20 06:56:24;;;;;;;0.90;0.73;;;23.40;99.90;;;;;;5015288;28;20472;-73
2022/08/20 06:58:53;;;;;;;0.70;0.20;;;23.40;99.90;;;;;;5012542;28;20523;-74
2022/08/20 07:01:21;;;;;;;0.70;0.10;;;23.40;99.90;;;;;;5012488;28;20476;-74
2022/08/20 07:03:49;;;;;;;0.70;0.20;;;23.40;99.90;;;;;;5023527;28;20463;-73
2022/08/20 07:06:24;;;;;;;0.70;0.20;;;23.50;99.90;;;;;;5032525;28;20475;-73
2022/08/20 07:08:52;;;;;;;0.70;0.10;;;23.50;99.90;;;;;;5020468;28;20893;-73
2022/08/20 07:11:20;;;;;;;0.70;0.10;;;23.40;99.90;;;;;;5032953;28;20457;-73
2022/08/20 07:13:57;;;;;;;0.70;0.10;;;23.40;99.90;;;;;;5046265;28;20445;-73
2022/08/20 07:16:26;;;;;;;0.70;0.20;;;23.40;99.90;;;;;;5046232;28;20492;-74
2022/08/20 07:18:53;;;;;;;0.70;0.10;;;23.40;99.90;;;;;;5033968;28;20451;-73
2022/08/20 07:21:21;;;;;;;0.70;0.20;;;23.50;99.90;;;;;;5032049;28;20483;-73
2022/08/20 07:23:49;;;;;;;0.70;0.10;;;23.40;99.90;;;;;;5032625;28;20451;-74
2022/08/20 07:26:17;;;;;;;0.70;0.20;;;23.40;99.90;;;;;;5031798;28;20471;-73
2022/08/20 07:28:46;;;;;;;0.70;0.20;;;23.50;99.90;;;;;;5040236;28;20531;-74
2022/08/20 07:34:02;;;;;;;0.70;0.17;;;23.40;99.90;;;;;;5022483;28;20446;-74
2022/08/20 07:36:31;;;;;;;0.70;0.20;;;23.30;99.90;;;;;;5040358;28;20458;-74
2022/08/20 07:39:00;;;;;;;1.40;0.50;;;23.30;99.90;;;;;;5038400;28;20463;-73
2022/08/20 07:41:33;;;;;;;0.80;0.40;;;23.20;99.90;;;;;;5031036;28;20499;-76
2022/08/20 07:44:01;;;;;;;0.70;0.10;;;23.20;99.90;;;;;;5042101;28;20938;-73
2022/08/20 07:46:31;;;;;;;0.90;0.53;;;23.20;99.90;;;;;;5033216;28;20482;-74
2022/08/20 07:48:59;;;;;;;0.70;0.30;;;23.20;99.90;;;;;;5032928;28;20447;-77
2022/08/20 07:51:28;;;;;;;0.70;0.10;;;23.20;99.90;;;;;;5023734;28;20447;-75
2022/08/20 07:53:58;;;;;;;0.70;0.10;;;23.30;99.90;;;;;;5015903;28;20965;-74
2022/08/20 07:56:26;;;;;;;0.70;0.10;;;23.40;99.90;;;;;;5015329;28;20472;-75
2022/08/20 07:58:57;;;;;;;2.33;1.57;;;23.40;99.90;;;;;;5015056;28;20437;-78
2022/08/20 08:01:29;;;;;;;0.83;0.33;;;23.30;99.90;;;;;;5040869;28;20520;-71
2022/08/20 08:03:59;;;;;;;0.70;0.13;;;23.10;99.90;;;;;;5055249;28;20450;-70
2022/08/20 08:06:29;;;;;;;0.70;0.20;;;23.10;99.90;;;;;;5054349;28;20537;-73
2022/08/20 08:09:01;;;;;;;0.70;0.10;;;23.10;99.90;;;;;;5055969;28;20506;-72
2022/08/20 08:11:29;;;;;;;0.70;0.10;;;23.20;99.90;;;;;;5043188;28;20447;-71
2022/08/20 08:13:59;;;;;;;3.57;0.90;;;23.50;99.90;;;;;;5033564;28;20459;-75
2022/08/20 08:16:29;;;;;;;0.70;0.20;;;23.40;99.90;;;;;;5039154;28;20466;-74
2022/08/20 08:19:00;;;;;;;0.70;0.20;;;23.40;99.90;;;;;;5039932;28;20966;-73
2022/08/20 08:21:29;;;;;;;0.80;0.30;;;23.40;99.90;;;;;;5037867;28;20506;-68
2022/08/20 08:23:57;;;;;;;0.70;0.20;;;23.40;99.90;;;;;;5028639;28;20436;-70
2022/08/20 08:26:27;;;;;;;0.70;0.20;;;23.50;99.90;;;;;;5025211;28;20467;-69
2022/08/20 08:28:56;;;;;;;0.80;0.50;;;23.60;99.90;;;;;;5022919;28;20548;-67
2022/08/20 08:31:25;;;;;;;0.70;0.10;;;23.70;99.90;;;;;;5024156;28;20472;-67
2022/08/20 08:33:53;;;;;;;0.70;0.10;;;23.80;99.90;;;;;;5039744;28;20447;-68
2022/08/20 08:36:25;;;;;;;0.70;0.20;;;;;;;;;;5033323;28;20456;-66
2022/08/20 08:38:55;;;;;;;0.70;0.20;;;24.20;99.90;;;;;;5030593;28;20555;-69
2022/08/20 08:41:30;;;;;;;0.70;0.10;;;24.30;99.90;;;;;;5014184;28;20476;-71
2022/08/20 08:44:06;;;;;;;0.70;0.20;;;24.50;99.90;;;;;;5035322;28;20462;-68
2022/08/20 08:46:41;;;;;;;0.80;0.40;;;24.60;99.90;;;;;;5033941;28;20833;-66
2022/08/20 08:49:12;;;;;;;0.70;0.10;;;24.70;99.90;;;;;;5033489;28;20878;-67
2022/08/20 08:51:47;;;;;;;0.70;0.10;;;24.80;99.90;;;;;;5044514;28;20462;-68
2022/08/20 08:54:17;;;;;;;0.70;0.20;;;24.80;99.90;;;;;;5034253;28;20449;-68
2022/08/20 08:56:45;;;;;;;0.70;0.10;;;24.90;99.90;;;;;;5038782;28;20471;-75
2022/08/20 08:59:18;;;;;;;0.70;0.10;;;24.90;99.90;;;;;;5038414;28;20941;-67
2022/08/20 09:01:49;;;;;;;0.80;0.40;;;25.00;99.90;;;;;;5032607;28;20479;-67
2022/08/20 09:04:30;;;;;;;0.70;0.20;;;25.10;99.90;;;;;;5032746;28;20495;-66
2022/08/20 09:07:03;;;;;;;0.70;0.20;;;25.20;99.90;;;;;;5031629;28;20465;-67
2022/08/20 09:09:35;;;;;;;0.90;0.40;;;25.20;99.90;;;;;;5032233;28;20531;-68
2022/08/20 09:12:06;;;;;;;0.70;0.20;;;25.10;99.90;;;;;;5032301;28;20474;-68
2022/08/20 09:14:35;;;;;;;4.27;3.80;;;25.20;99.90;;;;;;5033244;28;20520;-67
2022/08/20 09:17:03;;;;;;;0.97;0.40;;;25.10;99.90;;;;;;5032809;28;20506;-68
2022/08/20 09:19:31;;;;;;;0.70;0.27;;;24.90;99.90;;;;;;5021047;28;20451;-69
2022/08/20 09:22:08;;;;;;;2.00;1.23;;;24.80;99.90;;;;;;5012924;28;20480;-68
2022/08/20 09:24:35;;;;;;;0.70;0.10;;;24.80;99.90;;;;;;5023361;28;20457;-67
2022/08/20 09:27:03;;;;;;;0.70;0.20;;;24.80;99.90;;;;;;5031632;28;20479;-67
2022/08/20 09:29:32;;;;;;;4.20;1.23;;;24.80;99.90;;;;;;5021373;28;20459;-68
2022/08/20 09:32:07;;;;;;;6.30;1.87;;;23.90;99.90;;;;;;5013875;28;20437;-66
2022/08/20 09:34:37;;;;;;;0.70;0.10;;;24.70;99.90;;;;;;5012972;28;20455;-69
2022/08/20 09:37:06;;;;;;;0.70;0.10;;;24.60;99.90;;;;;;5013399;28;20559;-69
2022/08/20 09:39:34;;;;;;;0.70;0.20;;;24.60;99.90;;;;;;5024645;28;20459;-67
2022/08/20 09:42:10;;;;;;;0.70;0.20;;;24.60;99.90;;;;;;5032633;28;20475;-68
2022/08/20 09:44:38;;;;;;;0.80;0.47;;;24.50;99.90;;;;;;5032565;28;20458;-69
2022/08/20 09:47:06;;;;;;;1.03;0.40;;;24.40;99.90;;;;;;5032295;28;20988;-67
2022/08/20 09:49:36;;;;;;;0.70;0.27;;;24.40;99.90;;;;;;5020494;28;20463;-70
2022/08/20 09:52:07;;;;;;;0.70;0.10;;;24.40;99.90;;;;;;5012913;28;20445;-68
2022/08/20 09:54:37;;;;;;;0.70;0.20;;;24.50;99.90;;;;;;5012851;28;20449;-69
2022/08/20 09:57:08;;;;;;;0.70;0.10;;;24.90;99.90;;;;;;5016204;28;20563;-68
2022/08/20 09:59:37;;;;;;;0.80;0.40;;;24.90;99.90;;;;;;5012274;28;20675;-71
2022/08/20 10:02:05;;;;;;;0.93;0.20;;;25.20;99.90;;;;;;5012536;28;20488;-68
2022/08/20 10:04:33;;;;;;;0.70;0.10;;;25.40;99.90;;;;;;5012300;28;20444;-68
2022/08/20 10:07:01;;;;;;;0.70;0.10;;;25.50;99.90;;;;;;5016092;28;20485;-68
2022/08/20 10:09:30;;;;;;;0.70;0.10;;;25.70;99.90;;;;;;5032792;28;20463;-67
2022/08/20 10:11:58;;;;;;;0.83;0.67;;;25.90;99.90;;;;;;5033593;28;20447;-68
2022/08/20 10:14:26;;;;;;;0.70;0.20;;;26.00;99.90;;;;;;5034205;28;20443;-67
2022/08/20 10:16:56;;;;;;;0.70;0.10;;;26.00;99.90;;;;;;5027920;28;21013;-69
2022/08/20 10:19:30;;;;;;;0.70;0.10;;;26.00;99.90;;;;;;5012928;28;20851;-67
2022/08/20 10:21:58;;;;;;;0.70;0.20;;;26.00;99.90;;;;;;5012201;28;20451;-67
2022/08/20 10:24:27;;;;;;;0.70;0.10;;;26.00;99.90;;;;;;5012642;28;20440;-69
2022/08/20 10:26:58;;;;;;;0.70;0.10;;;26.00;99.90;;;;;;5015519;28;21021;-68
2022/08/20 10:29:28;;;;;;;0.70;0.10;;;26.00;99.90;;;;;;5025909;28;20449;-68
2022/08/20 10:31:57;;;;;;;0.70;0.20;;;26.00;99.90;;;;;;5030895;28;20436;-67
2022/08/20 10:34:25;;;;;;;0.70;0.10;;;25.90;99.90;;;;;;5031343;28;20447;-67
2022/08/20 10:36:53;;;;;;;0.80;0.20;;;25.80;99.90;;;;;;5030819;28;20470;-69
2022/08/20 10:39:21;;;;;;;0.70;0.10;;;25.80;99.90;;;;;;5031414;28;20534;-68
2022/08/20 10:41:48;;;;;;;0.70;0.10;;;25.80;99.90;;;;;;5031382;28;20440;-70
2022/08/20 10:44:18;;;;;;;0.70;0.10;;;25.80;99.90;;;;;;5030708;28;20483;-69
2022/08/20 10:46:48;;;;;;;0.70;0.10;;;25.70;99.90;;;;;;5029044;28;20468;-70
2022/08/20 10:49:20;;;;;;;0.70;0.17;;;25.70;99.90;;;;;;5025895;28;20438;-68
2022/08/20 10:51:48;;;;;;;0.70;0.10;;;25.60;99.90;;;;;;5030506;28;20455;-69
2022/08/20 10:54:16;;;;;;;0.70;0.10;;;25.60;99.90;;;;;;5031119;28;20451;-69
2022/08/20 10:56:44;;;;;;;0.70;0.20;;;25.70;99.90;;;;;;5030322;28;20551;-68
2022/08/20 10:59:12;;;;;;;0.70;0.10;;;25.70;99.90;;;;;;5030021;28;20513;-67
2022/08/20 11:01:41;;;;;;;0.70;0.10;;;25.80;99.90;;;;;;5030125;28;20956;-68
2022/08/20 11:04:09;;;;;;;0.70;0.10;;;25.90;99.90;;;;;;5028477;28;20499;-69
2022/08/20 11:06:37;;;;;;;0.70;0.10;;;25.70;99.90;;;;;;5028296;28;20541;-68
2022/08/20 11:09:05;;;;;;;0.70;0.20;;;26.00;99.90;;;;;;5031234;28;20462;-69
2022/08/20 11:11:36;;;;;;;0.70;0.10;;;26.00;99.90;;;;;;5031355;28;20475;-72
2022/08/20 11:14:04;;;;;;;0.70;0.20;;;26.00;99.90;;;;;;5028375;28;20937;-71
2022/08/20 11:16:32;;;;;;;0.70;0.10;;;26.10;99.90;;;;;;5030996;28;20497;-73
2022/08/20 11:19:01;;;;;;;0.70;0.10;;;26.10;99.90;;;;;;5030698;28;20470;-70
2022/08/20 11:21:29;;;;;;;0.93;0.50;;;26.20;99.90;;;;;;5031462;28;20439;-73
2022/08/20 11:23:57;;;;;;;0.70;0.10;;;26.50;99.90;;;;;;5031197;28;20483;-73
2022/08/20 11:26:29;;;;;;;0.70;0.20;;;26.60;99.90;;;;;;5036043;28;20471;-70
2022/08/20 11:28:57;;;;;;;0.70;0.20;;;26.60;99.90;;;;;;5037530;28;20447;-71
2022/08/20 11:31:25;;;;;;;0.70;0.20;;;26.50;99.90;;;;;;5035274;28;20453;-70
2022/08/20 11:33:53;;;;;;;0.70;0.10;;;26.50;99.90;;;;;;5035478;28;20470;-70
2022/08/20 11:36:25;;;;;;;0.70;0.20;;;26.40;99.90;;;;;;5035373;28;20463;-69
2022/08/20 11:38:53;;;;;;;0.70;0.10;;;26.40;99.90;;;;;;5036153;28;20464;-70
2022/08/20 11:41:21;;;;;;;0.70;0.20;;;26.40;99.90;;;;;;5035738;28;20453;-71
2022/08/20 11:43:49;;;;;;;0.70;0.10;;;26.50;99.90;;;;;;5034553;28;20471;-69
2022/08/20 11:46:37;;;;;;;0.70;0.20;;;26.80;99.90;;;;;;5034922;28;20474;-69
2022/08/20 11:49:05;;;;;;;0.70;0.20;;;26.90;99.90;;;;;;5034142;28;20470;-69
2022/08/20 11:51:36;;;;;;;0.70;0.20;;;27.00;99.90;;;;;;5034918;28;20451;-68
2022/08/20 11:54:16;;;;;;;0.90;0.27;;;27.10;99.90;;;;;;5038671;28;20431;-70
2022/08/20 11:56:44;;;;;;;0.70;0.10;;;27.00;99.90;;;;;;5038254;28;20459;-71
2022/08/20 11:59:13;;;;;;;0.70;0.20;;;27.00;99.90;;;;;;5034695;28;20810;-69
2022/08/20 12:01:41;;;;;;;0.70;0.10;;;27.00;99.90;;;;;;5035134;28;20455;-69
2022/08/20 12:04:29;;;;;;;0.70;0.20;;;27.10;99.90;;;;;;5026557;28;20535;-70
2022/08/20 12:07:10;;;;;;;0.70;0.20;;;27.00;99.90;;;;;;5029819;28;20490;-69
2022/08/20 12:09:38;;;;;;;0.70;0.10;;;27.00;99.90;;;;;;5032491;28;20450;-70
2022/08/20 12:12:18;;;;;;;0.70;0.20;;;27.00;99.90;;;;;;5014761;28;20923;-70
2022/08/20 12:14:46;;;;;;;0.70;0.20;;;27.00;99.90;;;;;;5032616;28;20825;-69
2022/08/20 12:17:20;;;;;;;0.70;0.10;;;27.10;99.90;;;;;;5028183;28;20911;-69
2022/08/20 12:19:48;;;;;;;0.70;0.10;;;27.10;99.90;;;;;;5013203;28;20815;-68
2022/08/20 12:22:17;;;;;;;0.70;0.20;;;27.20;99.90;;;;;;5015637;28;20440;-68
2022/08/20 12:24:52;;;;;;;0.70;0.20;;;27.20;99.90;;;;;;5034025;28;20482;-69
2022/08/20 12:27:22;;;;;;;0.70;0.10;;;27.20;99.90;;;;;;5032815;28;20479;-69
2022/08/20 12:29:52;;;;;;;0.70;0.20;;;27.10;99.90;;;;;;5034810;28;20518;-68
2022/08/20 12:32:20;;;;;;;0.70;0.20;;;27.20;99.90;;;;;;5034871;28;20449;-68
2022/08/20 12:34:49;;;;;;;0.70;0.20;;;27.20;99.90;;;;;;5034145;28;20942;-69
2022/08/20 12:37:20;;;;;;;0.70;0.10;;;27.40;99.90;;;;;;5033048;28;21211;-69
2022/08/20 12:39:52;;;;;;;0.70;0.17;;;27.40;99.90;;;;;;5034410;28;20466;-69
2022/08/20 12:42:21;;;;;;;0.70;0.20;;;27.60;99.90;;;;;;5033711;28;20515;-69
2022/08/20 12:44:49;;;;;;;0.70;0.20;;;27.60;99.90;;;;;;5034612;28;20475;-68
2022/08/20 12:47:20;;;;;;;0.70;0.20;;;27.60;99.90;;;;;;5029719;28;20799;-69
2022/08/20 12:49:52;;;;;;;0.70;0.13;;;27.70;99.90;;;;;;5027753;28;20436;-69
2022/08/20 12:52:24;;;;;;;0.70;0.10;;;27.70;99.90;;;;;;5038973;28;20451;-68
2022/08/20 12:54:52;;;;;;;0.70;0.20;;;27.90;99.90;;;;;;5033868;28;20435;-69
2022/08/20 12:57:27;;;;;;;0.70;0.10;;;28.20;99.90;;;;;;5030136;28;20468;-69
2022/08/20 12:59:55;;;;;;;0.70;0.20;;;28.40;99.90;;;;;;5013980;28;20450;-68
2022/08/20 13:02:26;;;;;;;0.70;0.17;;;28.30;99.90;;;;;;5013807;28;20476;-69
2022/08/20 13:04:54;;;;;;;0.70;0.20;;;28.30;99.90;;;;;;5013873;28;21071;-70
2022/08/20 13:07:25;;;;;;;0.90;0.77;;;28.40;99.90;;;;;;5021577;28;20478;-69
2022/08/20 13:09:54;;;;;;;0.70;0.10;;;28.40;99.90;;;;;;5039391;28;20466;-69
2022/08/20 13:12:22;;;;;;;0.70;0.20;;;28.50;99.90;;;;;;5038599;28;20537;-69
2022/08/20 13:14:50;;;;;;;0.70;0.10;;;28.70;99.90;;;;;;5033287;28;20784;-69
2022/08/20 13:17:19;;;;;;;0.70;0.13;;;28.80;99.90;;;;;;5030077;28;20490;-68